sensor_id;sensor_type;location;lat;lon;timestamp;P1;durP1;ratioP1;P2;durP2;ratioP2
4268;SDS011;2148;48.554;7.834;2023-04-24T00:00:11;1.80;;;1.70;;
4268;SDS011;2148;48.554;7.834;2023-04-24T00:02:40;3.57;;;1.60;;
4268;SDS011;2148;48.554;7.834;2023-04-24T00:05:11;2.53;;;1.80;;
4268;SDS011;2148;48.554;7.834;2023-04-24T00:07:37;1.60;;;1.50;;
4268;SDS011;2148;48.554;7.834;2023-04-24T00:10:02;2.00;;;1.77;;
4268;SDS011;2148;48.554;7.834;2023-04-24T00:12:28;2.70;;;1.70;;
4268;SDS011;2148;48.554;7.834;2023-04-24T00:14:53;2.33;;;1.60;;
4268;SDS011;2148;48.554;7.834;2023-04-24T00:17:18;1.83;;;1.50;;
4268;SDS011;2148;48.554;7.834;2023-04-24T00:19:46;1.90;;;1.80;;
4268;SDS011;2148;48.554;7.834;2023-04-24T00:22:16;1.93;;;1.80;;
4268;SDS011;2148;48.554;7.834;2023-04-24T00:24:41;3.00;;;1.70;;
4268;SDS011;2148;48.554;7.834;2023-04-24T00:27:06;1.97;;;1.70;;
4268;SDS011;2148;48.554;7.834;2023-04-24T00:29:32;2.03;;;1.73;;
4268;SDS011;2148;48.554;7.834;2023-04-24T00:31:57;1.60;;;1.50;;
4268;SDS011;2148;48.554;7.834;2023-04-24T00:34:22;1.80;;;1.70;;
4268;SDS011;2148;48.554;7.834;2023-04-24T00:36:47;2.10;;;1.90;;
4268;SDS011;2148;48.554;7.834;2023-04-24T00:39:17;2.50;;;1.70;;
4268;SDS011;2148;48.554;7.834;2023-04-24T00:41:43;2.00;;;1.77;;
4268;SDS011;2148;48.554;7.834;2023-04-24T00:44:08;2.20;;;1.63;;
4268;SDS011;2148;48.554;7.834;2023-04-24T00:46:33;1.77;;;1.67;;
4268;SDS011;2148;48.554;7.834;2023-04-24T00:48:59;2.03;;;1.83;;
4268;SDS011;2148;48.554;7.834;2023-04-24T00:51:24;2.87;;;1.63;;
4268;SDS011;2148;48.554;7.834;2023-04-24T00:53:49;2.40;;;1.80;;
4268;SDS011;2148;48.554;7.834;2023-04-24T00:56:15;2.47;;;1.80;;
4268;SDS011;2148;48.554;7.834;2023-04-24T00:58:41;1.77;;;1.60;;
4268;SDS011;2148;48.554;7.834;2023-04-24T01:01:07;1.60;;;1.50;;
4268;SDS011;2148;48.554;7.834;2023-04-24T01:03:32;1.70;;;1.27;;
4268;SDS011;2148;48.554;7.834;2023-04-24T01:05:58;2.20;;;1.70;;
4268;SDS011;2148;48.554;7.834;2023-04-24T01:08:23;1.83;;;1.63;;
4268;SDS011;2148;48.554;7.834;2023-04-24T01:10:49;2.40;;;1.93;;
4268;SDS011;2148;48.554;7.834;2023-04-24T01:13:16;1.60;;;1.50;;
4268;SDS011;2148;48.554;7.834;2023-04-24T01:15:43;2.50;;;1.80;;
4268;SDS011;2148;48.554;7.834;2023-04-24T01:18:08;1.90;;;1.80;;
4268;SDS011;2148;48.554;7.834;2023-04-24T01:20:33;2.90;;;1.77;;
4268;SDS011;2148;48.554;7.834;2023-04-24T01:22:58;2.93;;;1.83;;
4268;SDS011;2148;48.554;7.834;2023-04-24T01:25:24;4.47;;;1.90;;
4268;SDS011;2148;48.554;7.834;2023-04-24T01:27:50;2.30;;;1.60;;
4268;SDS011;2148;48.554;7.834;2023-04-24T01:30:16;1.80;;;1.70;;
4268;SDS011;2148;48.554;7.834;2023-04-24T01:32:41;2.23;;;1.80;;
4268;SDS011;2148;48.554;7.834;2023-04-24T01:35:09;1.70;;;1.60;;
4268;SDS011;2148;48.554;7.834;2023-04-24T01:37:34;2.00;;;1.90;;
4268;SDS011;2148;48.554;7.834;2023-04-24T01:40:02;1.80;;;1.70;;
4268;SDS011;2148;48.554;7.834;2023-04-24T01:42:28;2.07;;;1.80;;
4268;SDS011;2148;48.554;7.834;2023-04-24T01:44:54;2.53;;;1.60;;
4268;SDS011;2148;48.554;7.834;2023-04-24T01:47:20;1.70;;;1.60;;
4268;SDS011;2148;48.554;7.834;2023-04-24T01:49:45;1.90;;;1.80;;
4268;SDS011;2148;48.554;7.834;2023-04-24T01:52:10;1.93;;;1.60;;
4268;SDS011;2148;48.554;7.834;2023-04-24T01:54:36;2.03;;;1.67;;
4268;SDS011;2148;48.554;7.834;2023-04-24T01:57:01;2.00;;;1.80;;
4268;SDS011;2148;48.554;7.834;2023-04-24T01:59:27;1.90;;;1.60;;
4268;SDS011;2148;48.554;7.834;2023-04-24T02:01:53;2.23;;;1.80;;
4268;SDS011;2148;48.554;7.834;2023-04-24T02:04:18;1.80;;;1.70;;
4268;SDS011;2148;48.554;7.834;2023-04-24T02:06:44;2.20;;;1.87;;
4268;SDS011;2148;48.554;7.834;2023-04-24T02:09:09;3.27;;;1.90;;
4268;SDS011;2148;48.554;7.834;2023-04-24T02:11:35;3.00;;;1.40;;
4268;SDS011;2148;48.554;7.834;2023-04-24T02:14:01;1.83;;;1.73;;
4268;SDS011;2148;48.554;7.834;2023-04-24T02:16:27;1.80;;;1.70;;
4268;SDS011;2148;48.554;7.834;2023-04-24T02:18:55;1.80;;;1.70;;
4268;SDS011;2148;48.554;7.834;2023-04-24T02:21:20;1.73;;;1.60;;
4268;SDS011;2148;48.554;7.834;2023-04-24T02:23:45;3.50;;;1.53;;
4268;SDS011;2148;48.554;7.834;2023-04-24T02:26:11;2.80;;;1.73;;
4268;SDS011;2148;48.554;7.834;2023-04-24T02:28:36;2.13;;;1.50;;
4268;SDS011;2148;48.554;7.834;2023-04-24T02:31:01;1.60;;;1.50;;
4268;SDS011;2148;48.554;7.834;2023-04-24T02:33:27;3.03;;;1.80;;
4268;SDS011;2148;48.554;7.834;2023-04-24T02:35:52;1.60;;;1.50;;
4268;SDS011;2148;48.554;7.834;2023-04-24T02:38:17;1.77;;;1.60;;
4268;SDS011;2148;48.554;7.834;2023-04-24T02:40:42;2.47;;;1.80;;
4268;SDS011;2148;48.554;7.834;2023-04-24T02:43:08;2.70;;;1.80;;
4268;SDS011;2148;48.554;7.834;2023-04-24T02:45:33;1.57;;;1.47;;
4268;SDS011;2148;48.554;7.834;2023-04-24T02:47:59;2.23;;;1.50;;
4268;SDS011;2148;48.554;7.834;2023-04-24T02:50:25;1.93;;;1.70;;
4268;SDS011;2148;48.554;7.834;2023-04-24T02:52:50;2.40;;;1.90;;
4268;SDS011;2148;48.554;7.834;2023-04-24T02:55:15;2.83;;;1.97;;
4268;SDS011;2148;48.554;7.834;2023-04-24T02:57:40;2.50;;;1.90;;
4268;SDS011;2148;48.554;7.834;2023-04-24T03:00:06;2.90;;;1.83;;
4268;SDS011;2148;48.554;7.834;2023-04-24T03:02:32;1.87;;;1.60;;
4268;SDS011;2148;48.554;7.834;2023-04-24T03:04:57;2.20;;;1.80;;
4268;SDS011;2148;48.554;7.834;2023-04-24T03:07:22;2.73;;;1.80;;
4268;SDS011;2148;48.554;7.834;2023-04-24T03:09:49;1.80;;;1.70;;
4268;SDS011;2148;48.554;7.834;2023-04-24T03:12:14;1.60;;;1.50;;
4268;SDS011;2148;48.554;7.834;2023-04-24T03:14:39;2.23;;;1.73;;
4268;SDS011;2148;48.554;7.834;2023-04-24T03:17:04;1.83;;;1.63;;
4268;SDS011;2148;48.554;7.834;2023-04-24T03:19:30;2.83;;;1.80;;
4268;SDS011;2148;48.554;7.834;2023-04-24T03:21:55;1.87;;;1.50;;
4268;SDS011;2148;48.554;7.834;2023-04-24T03:24:20;2.10;;;1.63;;
4268;SDS011;2148;48.554;7.834;2023-04-24T03:26:46;2.80;;;1.40;;
4268;SDS011;2148;48.554;7.834;2023-04-24T03:29:11;2.90;;;1.60;;
4268;SDS011;2148;48.554;7.834;2023-04-24T03:31:36;1.60;;;1.50;;
4268;SDS011;2148;48.554;7.834;2023-04-24T03:34:02;1.80;;;1.70;;
4268;SDS011;2148;48.554;7.834;2023-04-24T03:36:27;1.83;;;1.70;;
4268;SDS011;2148;48.554;7.834;2023-04-24T03:38:52;2.83;;;2.00;;
4268;SDS011;2148;48.554;7.834;2023-04-24T03:41:17;5.90;;;5.00;;
4268;SDS011;2148;48.554;7.834;2023-04-24T03:43:43;5.43;;;4.87;;
4268;SDS011;2148;48.554;7.834;2023-04-24T03:46:09;6.23;;;5.20;;
4268;SDS011;2148;48.554;7.834;2023-04-24T03:48:34;4.93;;;3.50;;
4268;SDS011;2148;48.554;7.834;2023-04-24T03:51:00;2.40;;;2.20;;
4268;SDS011;2148;48.554;7.834;2023-04-24T03:53:25;2.87;;;1.80;;
4268;SDS011;2148;48.554;7.834;2023-04-24T03:55:51;1.80;;;1.70;;
4268;SDS011;2148;48.554;7.834;2023-04-24T03:58:17;2.33;;;2.07;;
4268;SDS011;2148;48.554;7.834;2023-04-24T04:00:42;2.30;;;2.10;;
4268;SDS011;2148;48.554;7.834;2023-04-24T04:03:09;2.67;;;1.90;;
4268;SDS011;2148;48.554;7.834;2023-04-24T04:05:34;2.70;;;2.03;;
4268;SDS011;2148;48.554;7.834;2023-04-24T04:08:00;1.90;;;1.80;;
4268;SDS011;2148;48.554;7.834;2023-04-24T04:10:25;2.37;;;2.10;;
4268;SDS011;2148;48.554;7.834;2023-04-24T04:12:50;2.20;;;2.00;;
4268;SDS011;2148;48.554;7.834;2023-04-24T04:15:16;2.10;;;1.90;;
4268;SDS011;2148;48.554;7.834;2023-04-24T04:17:41;2.40;;;2.10;;
4268;SDS011;2148;48.554;7.834;2023-04-24T04:20:07;2.00;;;1.90;;
4268;SDS011;2148;48.554;7.834;2023-04-24T04:22:35;2.03;;;1.90;;
4268;SDS011;2148;48.554;7.834;2023-04-24T04:25:01;2.10;;;1.90;;
4268;SDS011;2148;48.554;7.834;2023-04-24T04:27:26;2.60;;;2.00;;
4268;SDS011;2148;48.554;7.834;2023-04-24T04:29:51;2.33;;;1.90;;
4268;SDS011;2148;48.554;7.834;2023-04-24T04:32:17;3.90;;;2.30;;
4268;SDS011;2148;48.554;7.834;2023-04-24T04:34:42;2.07;;;1.70;;
4268;SDS011;2148;48.554;7.834;2023-04-24T04:37:10;2.20;;;2.00;;
4268;SDS011;2148;48.554;7.834;2023-04-24T04:39:36;2.87;;;1.80;;
4268;SDS011;2148;48.554;7.834;2023-04-24T04:42:01;2.23;;;1.80;;
4268;SDS011;2148;48.554;7.834;2023-04-24T04:44:26;1.97;;;1.77;;
4268;SDS011;2148;48.554;7.834;2023-04-24T04:46:52;1.77;;;1.67;;
4268;SDS011;2148;48.554;7.834;2023-04-24T04:49:18;2.53;;;2.13;;
4268;SDS011;2148;48.554;7.834;2023-04-24T04:51:43;2.20;;;2.00;;
4268;SDS011;2148;48.554;7.834;2023-04-24T04:54:09;2.57;;;1.93;;
4268;SDS011;2148;48.554;7.834;2023-04-24T04:56:35;3.03;;;2.20;;
4268;SDS011;2148;48.554;7.834;2023-04-24T04:59:00;2.00;;;1.80;;
4268;SDS011;2148;48.554;7.834;2023-04-24T05:01:25;2.70;;;1.87;;
4268;SDS011;2148;48.554;7.834;2023-04-24T05:03:52;2.20;;;2.00;;
4268;SDS011;2148;48.554;7.834;2023-04-24T05:06:17;2.57;;;1.93;;
4268;SDS011;2148;48.554;7.834;2023-04-24T05:08:42;3.77;;;2.23;;
4268;SDS011;2148;48.554;7.834;2023-04-24T05:11:08;2.93;;;2.50;;
4268;SDS011;2148;48.554;7.834;2023-04-24T05:13:33;3.37;;;2.17;;
4268;SDS011;2148;48.554;7.834;2023-04-24T05:15:58;2.50;;;2.30;;
4268;SDS011;2148;48.554;7.834;2023-04-24T05:18:24;4.03;;;2.60;;
4268;SDS011;2148;48.554;7.834;2023-04-24T05:20:49;2.63;;;2.17;;
4268;SDS011;2148;48.554;7.834;2023-04-24T05:23:14;7.40;;;2.40;;
4268;SDS011;2148;48.554;7.834;2023-04-24T05:25:39;2.33;;;2.13;;
4268;SDS011;2148;48.554;7.834;2023-04-24T05:28:06;2.77;;;2.50;;
4268;SDS011;2148;48.554;7.834;2023-04-24T05:30:31;2.83;;;2.30;;
4268;SDS011;2148;48.554;7.834;2023-04-24T05:32:56;2.60;;;2.13;;
4268;SDS011;2148;48.554;7.834;2023-04-24T05:35:22;2.40;;;2.20;;
4268;SDS011;2148;48.554;7.834;2023-04-24T05:37:47;3.53;;;2.57;;
4268;SDS011;2148;48.554;7.834;2023-04-24T05:40:12;3.13;;;2.80;;
4268;SDS011;2148;48.554;7.834;2023-04-24T05:42:37;5.47;;;2.93;;
4268;SDS011;2148;48.554;7.834;2023-04-24T05:45:03;3.57;;;3.10;;
4268;SDS011;2148;48.554;7.834;2023-04-24T05:47:29;3.67;;;2.37;;
4268;SDS011;2148;48.554;7.834;2023-04-24T05:49:54;3.37;;;2.40;;
4268;SDS011;2148;48.554;7.834;2023-04-24T05:52:20;3.70;;;2.70;;
4268;SDS011;2148;48.554;7.834;2023-04-24T05:54:45;2.67;;;2.47;;
4268;SDS011;2148;48.554;7.834;2023-04-24T05:57:10;3.40;;;2.80;;
4268;SDS011;2148;48.554;7.834;2023-04-24T05:59:36;3.60;;;2.80;;
4268;SDS011;2148;48.554;7.834;2023-04-24T06:02:02;2.87;;;2.53;;
4268;SDS011;2148;48.554;7.834;2023-04-24T06:04:28;2.73;;;2.53;;
4268;SDS011;2148;48.554;7.834;2023-04-24T06:06:53;3.33;;;2.90;;
4268;SDS011;2148;48.554;7.834;2023-04-24T06:09:21;2.70;;;2.50;;
4268;SDS011;2148;48.554;7.834;2023-04-24T06:11:47;3.10;;;2.73;;
4268;SDS011;2148;48.554;7.834;2023-04-24T06:14:12;2.77;;;2.57;;
4268;SDS011;2148;48.554;7.834;2023-04-24T06:16:37;4.60;;;2.80;;
4268;SDS011;2148;48.554;7.834;2023-04-24T06:19:03;4.47;;;3.00;;
4268;SDS011;2148;48.554;7.834;2023-04-24T06:21:29;5.47;;;3.40;;
4268;SDS011;2148;48.554;7.834;2023-04-24T06:23:54;3.03;;;2.83;;
4268;SDS011;2148;48.554;7.834;2023-04-24T06:26:20;3.50;;;2.63;;
4268;SDS011;2148;48.554;7.834;2023-04-24T06:28:47;3.30;;;3.00;;
4268;SDS011;2148;48.554;7.834;2023-04-24T06:31:12;3.40;;;2.80;;
4268;SDS011;2148;48.554;7.834;2023-04-24T06:33:37;3.03;;;2.83;;
4268;SDS011;2148;48.554;7.834;2023-04-24T06:36:02;4.50;;;2.87;;
4268;SDS011;2148;48.554;7.834;2023-04-24T06:38:28;5.23;;;2.70;;
4268;SDS011;2148;48.554;7.834;2023-04-24T06:40:54;3.03;;;2.47;;
4268;SDS011;2148;48.554;7.834;2023-04-24T06:43:19;3.00;;;2.70;;
4268;SDS011;2148;48.554;7.834;2023-04-24T06:45:45;3.10;;;2.90;;
4268;SDS011;2148;48.554;7.834;2023-04-24T06:48:11;3.37;;;3.00;;
4268;SDS011;2148;48.554;7.834;2023-04-24T06:50:37;2.47;;;2.27;;
4268;SDS011;2148;48.554;7.834;2023-04-24T06:53:02;3.60;;;2.70;;
4268;SDS011;2148;48.554;7.834;2023-04-24T06:55:27;3.20;;;2.50;;
4268;SDS011;2148;48.554;7.834;2023-04-24T06:57:53;3.23;;;2.63;;
4268;SDS011;2148;48.554;7.834;2023-04-24T07:00:18;2.57;;;2.37;;
4268;SDS011;2148;48.554;7.834;2023-04-24T07:02:43;2.50;;;2.30;;
4268;SDS011;2148;48.554;7.834;2023-04-24T07:05:09;3.40;;;2.83;;
4268;SDS011;2148;48.554;7.834;2023-04-24T07:07:34;2.83;;;2.50;;
4268;SDS011;2148;48.554;7.834;2023-04-24T07:10:02;3.17;;;2.57;;
4268;SDS011;2148;48.554;7.834;2023-04-24T07:12:28;2.80;;;2.40;;
4268;SDS011;2148;48.554;7.834;2023-04-24T07:14:54;3.10;;;2.67;;
4268;SDS011;2148;48.554;7.834;2023-04-24T07:17:19;2.90;;;2.40;;
4268;SDS011;2148;48.554;7.834;2023-04-24T07:19:44;3.10;;;2.37;;
4268;SDS011;2148;48.554;7.834;2023-04-24T07:22:10;3.07;;;2.70;;
4268;SDS011;2148;48.554;7.834;2023-04-24T07:24:41;2.67;;;2.47;;
4268;SDS011;2148;48.554;7.834;2023-04-24T07:27:07;3.30;;;2.63;;
4268;SDS011;2148;48.554;7.834;2023-04-24T07:29:32;3.27;;;2.50;;
4268;SDS011;2148;48.554;7.834;2023-04-24T07:31:57;3.03;;;2.57;;
4268;SDS011;2148;48.554;7.834;2023-04-24T07:34:22;2.77;;;2.57;;
4268;SDS011;2148;48.554;7.834;2023-04-24T07:36:48;2.40;;;2.20;;
4268;SDS011;2148;48.554;7.834;2023-04-24T07:39:13;3.87;;;2.57;;
4268;SDS011;2148;48.554;7.834;2023-04-24T07:41:38;5.23;;;2.73;;
4268;SDS011;2148;48.554;7.834;2023-04-24T07:44:03;2.40;;;2.20;;
4268;SDS011;2148;48.554;7.834;2023-04-24T07:46:29;2.70;;;2.47;;
4268;SDS011;2148;48.554;7.834;2023-04-24T07:48:55;2.80;;;2.60;;
4268;SDS011;2148;48.554;7.834;2023-04-24T07:51:20;4.03;;;2.43;;
4268;SDS011;2148;48.554;7.834;2023-04-24T07:53:46;3.30;;;2.07;;
4268;SDS011;2148;48.554;7.834;2023-04-24T07:56:11;3.30;;;2.00;;
4268;SDS011;2148;48.554;7.834;2023-04-24T07:58:36;3.33;;;2.00;;
4268;SDS011;2148;48.554;7.834;2023-04-24T08:01:02;2.77;;;2.10;;
4268;SDS011;2148;48.554;7.834;2023-04-24T08:03:27;2.93;;;2.10;;
4268;SDS011;2148;48.554;7.834;2023-04-24T08:05:52;4.30;;;2.40;;
4268;SDS011;2148;48.554;7.834;2023-04-24T08:08:19;3.10;;;2.50;;
4268;SDS011;2148;48.554;7.834;2023-04-24T08:10:46;3.83;;;2.30;;
4268;SDS011;2148;48.554;7.834;2023-04-24T08:13:11;2.20;;;2.00;;
4268;SDS011;2148;48.554;7.834;2023-04-24T08:15:37;3.77;;;2.27;;
4268;SDS011;2148;48.554;7.834;2023-04-24T08:18:02;2.53;;;2.10;;
4268;SDS011;2148;48.554;7.834;2023-04-24T08:20:27;2.87;;;1.90;;
4268;SDS011;2148;48.554;7.834;2023-04-24T08:22:53;2.47;;;1.70;;
4268;SDS011;2148;48.554;7.834;2023-04-24T08:25:19;2.20;;;2.00;;
4268;SDS011;2148;48.554;7.834;2023-04-24T08:27:44;2.60;;;1.80;;
4268;SDS011;2148;48.554;7.834;2023-04-24T08:30:10;2.87;;;2.33;;
4268;SDS011;2148;48.554;7.834;2023-04-24T08:32:36;2.43;;;1.90;;
4268;SDS011;2148;48.554;7.834;2023-04-24T08:35:01;2.70;;;1.83;;
4268;SDS011;2148;48.554;7.834;2023-04-24T08:37:27;2.10;;;1.90;;
4268;SDS011;2148;48.554;7.834;2023-04-24T08:39:52;3.03;;;1.80;;
4268;SDS011;2148;48.554;7.834;2023-04-24T08:42:18;2.10;;;2.00;;
4268;SDS011;2148;48.554;7.834;2023-04-24T08:44:44;2.80;;;2.00;;
4268;SDS011;2148;48.554;7.834;2023-04-24T08:47:10;3.57;;;2.03;;
4268;SDS011;2148;48.554;7.834;2023-04-24T08:49:37;5.23;;;1.90;;
4268;SDS011;2148;48.554;7.834;2023-04-24T08:52:03;2.00;;;1.80;;
4268;SDS011;2148;48.554;7.834;2023-04-24T08:54:28;2.90;;;2.70;;
4268;SDS011;2148;48.554;7.834;2023-04-24T08:56:55;4.70;;;4.03;;
4268;SDS011;2148;48.554;7.834;2023-04-24T08:59:22;3.90;;;2.40;;
4268;SDS011;2148;48.554;7.834;2023-04-24T09:01:48;3.97;;;2.30;;
4268;SDS011;2148;48.554;7.834;2023-04-24T09:04:14;2.83;;;2.57;;
4268;SDS011;2148;48.554;7.834;2023-04-24T09:06:41;2.90;;;2.70;;
4268;SDS011;2148;48.554;7.834;2023-04-24T09:09:07;2.67;;;2.30;;
4268;SDS011;2148;48.554;7.834;2023-04-24T09:11:33;2.27;;;2.00;;
4268;SDS011;2148;48.554;7.834;2023-04-24T09:13:58;3.17;;;2.37;;
4268;SDS011;2148;48.554;7.834;2023-04-24T09:16:24;2.40;;;2.20;;
4268;SDS011;2148;48.554;7.834;2023-04-24T09:18:50;2.63;;;2.13;;
4268;SDS011;2148;48.554;7.834;2023-04-24T09:21:16;3.20;;;3.00;;
4268;SDS011;2148;48.554;7.834;2023-04-24T09:23:41;4.80;;;4.43;;
4268;SDS011;2148;48.554;7.834;2023-04-24T09:26:06;4.60;;;4.10;;
4268;SDS011;2148;48.554;7.834;2023-04-24T09:28:35;5.57;;;4.93;;
4268;SDS011;2148;48.554;7.834;2023-04-24T09:31:17;3.20;;;3.00;;
4268;SDS011;2148;48.554;7.834;2023-04-24T09:34:03;2.60;;;2.40;;
4268;SDS011;2148;48.554;7.834;2023-04-24T09:36:40;4.43;;;2.60;;
4268;SDS011;2148;48.554;7.834;2023-04-24T09:39:10;2.97;;;2.27;;
4268;SDS011;2148;48.554;7.834;2023-04-24T09:41:47;2.37;;;2.20;;
4268;SDS011;2148;48.554;7.834;2023-04-24T09:44:20;4.70;;;2.30;;
4268;SDS011;2148;48.554;7.834;2023-04-24T09:46:51;2.00;;;1.90;;
4268;SDS011;2148;48.554;7.834;2023-04-24T09:49:21;1.87;;;1.50;;
4268;SDS011;2148;48.554;7.834;2023-04-24T09:51:48;2.47;;;1.93;;
4268;SDS011;2148;48.554;7.834;2023-04-24T09:54:14;2.73;;;2.13;;
4268;SDS011;2148;48.554;7.834;2023-04-24T09:56:44;2.50;;;1.97;;
4268;SDS011;2148;48.554;7.834;2023-04-24T09:59:11;2.83;;;2.40;;
4268;SDS011;2148;48.554;7.834;2023-04-24T10:01:36;3.83;;;2.47;;
4268;SDS011;2148;48.554;7.834;2023-04-24T10:04:03;4.13;;;3.73;;
4268;SDS011;2148;48.554;7.834;2023-04-24T10:06:35;3.23;;;2.90;;
4268;SDS011;2148;48.554;7.834;2023-04-24T10:09:00;3.53;;;2.97;;
4268;SDS011;2148;48.554;7.834;2023-04-24T10:11:26;2.43;;;2.20;;
4268;SDS011;2148;48.554;7.834;2023-04-24T10:13:52;2.30;;;2.10;;
4268;SDS011;2148;48.554;7.834;2023-04-24T10:16:18;2.10;;;2.00;;
4268;SDS011;2148;48.554;7.834;2023-04-24T10:18:44;3.87;;;1.83;;
4268;SDS011;2148;48.554;7.834;2023-04-24T10:21:10;2.17;;;2.00;;
4268;SDS011;2148;48.554;7.834;2023-04-24T10:23:35;5.23;;;3.90;;
4268;SDS011;2148;48.554;7.834;2023-04-24T10:26:01;4.00;;;3.50;;
4268;SDS011;2148;48.554;7.834;2023-04-24T10:28:26;3.57;;;3.27;;
4268;SDS011;2148;48.554;7.834;2023-04-24T10:30:53;3.00;;;2.80;;
4268;SDS011;2148;48.554;7.834;2023-04-24T10:33:19;5.00;;;2.80;;
4268;SDS011;2148;48.554;7.834;2023-04-24T10:35:45;2.57;;;2.37;;
4268;SDS011;2148;48.554;7.834;2023-04-24T10:38:14;2.83;;;2.43;;
4268;SDS011;2148;48.554;7.834;2023-04-24T10:40:41;4.33;;;2.20;;
4268;SDS011;2148;48.554;7.834;2023-04-24T10:43:07;2.67;;;2.47;;
4268;SDS011;2148;48.554;7.834;2023-04-24T10:45:35;2.33;;;2.10;;
4268;SDS011;2148;48.554;7.834;2023-04-24T10:48:02;2.40;;;2.20;;
4268;SDS011;2148;48.554;7.834;2023-04-24T10:50:28;2.33;;;2.20;;
4268;SDS011;2148;48.554;7.834;2023-04-24T10:53:04;3.23;;;2.47;;
4268;SDS011;2148;48.554;7.834;2023-04-24T10:55:44;3.17;;;2.70;;
4268;SDS011;2148;48.554;7.834;2023-04-24T10:58:11;2.77;;;2.23;;
4268;SDS011;2148;48.554;7.834;2023-04-24T11:00:37;3.17;;;2.43;;
4268;SDS011;2148;48.554;7.834;2023-04-24T11:03:04;2.93;;;2.43;;
4268;SDS011;2148;48.554;7.834;2023-04-24T11:08:21;6.43;;;5.77;;
4268;SDS011;2148;48.554;7.834;2023-04-24T11:10:58;6.20;;;5.60;;
4268;SDS011;2148;48.554;7.834;2023-04-24T11:19:00;3.63;;;3.07;;
4268;SDS011;2148;48.554;7.834;2023-04-24T11:21:28;3.30;;;2.60;;
4268;SDS011;2148;48.554;7.834;2023-04-24T11:23:56;2.47;;;2.27;;
4268;SDS011;2148;48.554;7.834;2023-04-24T11:26:22;2.83;;;2.47;;
4268;SDS011;2148;48.554;7.834;2023-04-24T11:29:05;3.37;;;2.63;;
4268;SDS011;2148;48.554;7.834;2023-04-24T11:34:08;3.30;;;2.13;;
4268;SDS011;2148;48.554;7.834;2023-04-24T11:36:34;2.77;;;2.50;;
4268;SDS011;2148;48.554;7.834;2023-04-24T11:39:00;3.07;;;2.37;;
4268;SDS011;2148;48.554;7.834;2023-04-24T11:41:26;3.10;;;2.40;;
4268;SDS011;2148;48.554;7.834;2023-04-24T11:43:52;3.93;;;2.70;;
4268;SDS011;2148;48.554;7.834;2023-04-24T11:46:18;2.53;;;2.27;;
4268;SDS011;2148;48.554;7.834;2023-04-24T11:48:46;3.67;;;2.90;;
4268;SDS011;2148;48.554;7.834;2023-04-24T11:51:12;3.90;;;3.50;;
4268;SDS011;2148;48.554;7.834;2023-04-24T11:53:37;6.50;;;2.77;;
4268;SDS011;2148;48.554;7.834;2023-04-24T11:56:03;3.63;;;3.33;;
4268;SDS011;2148;48.554;7.834;2023-04-24T11:58:34;3.60;;;2.97;;
4268;SDS011;2148;48.554;7.834;2023-04-24T12:01:08;2.63;;;2.43;;
4268;SDS011;2148;48.554;7.834;2023-04-24T12:03:33;3.03;;;2.50;;
4268;SDS011;2148;48.554;7.834;2023-04-24T12:06:08;5.13;;;2.50;;
4268;SDS011;2148;48.554;7.834;2023-04-24T12:08:34;4.00;;;2.70;;
4268;SDS011;2148;48.554;7.834;2023-04-24T12:11:00;3.00;;;2.70;;
4268;SDS011;2148;48.554;7.834;2023-04-24T12:13:26;3.30;;;2.27;;
4268;SDS011;2148;48.554;7.834;2023-04-24T12:15:51;3.47;;;2.60;;
4268;SDS011;2148;48.554;7.834;2023-04-24T12:18:17;3.00;;;2.30;;
4268;SDS011;2148;48.554;7.834;2023-04-24T12:20:42;4.63;;;2.60;;
4268;SDS011;2148;48.554;7.834;2023-04-24T12:23:07;2.90;;;2.07;;
4268;SDS011;2148;48.554;7.834;2023-04-24T12:25:32;2.40;;;2.20;;
4268;SDS011;2148;48.554;7.834;2023-04-24T12:30:50;2.50;;;2.30;;
4268;SDS011;2148;48.554;7.834;2023-04-24T12:33:19;2.80;;;2.57;;
4268;SDS011;2148;48.554;7.834;2023-04-24T12:35:45;3.67;;;2.60;;
4268;SDS011;2148;48.554;7.834;2023-04-24T12:38:13;2.10;;;2.00;;
4268;SDS011;2148;48.554;7.834;2023-04-24T12:40:39;3.80;;;2.57;;
4268;SDS011;2148;48.554;7.834;2023-04-24T12:43:19;3.07;;;2.50;;
4268;SDS011;2148;48.554;7.834;2023-04-24T12:45:45;2.83;;;2.57;;
4268;SDS011;2148;48.554;7.834;2023-04-24T12:48:11;2.83;;;2.63;;
4268;SDS011;2148;48.554;7.834;2023-04-24T12:50:36;2.97;;;2.57;;
4268;SDS011;2148;48.554;7.834;2023-04-24T12:53:03;2.60;;;2.40;;
4268;SDS011;2148;48.554;7.834;2023-04-24T12:55:28;2.53;;;2.30;;
4268;SDS011;2148;48.554;7.834;2023-04-24T12:57:53;3.73;;;2.60;;
4268;SDS011;2148;48.554;7.834;2023-04-24T13:00:20;2.30;;;2.20;;
4268;SDS011;2148;48.554;7.834;2023-04-24T13:02:45;2.77;;;2.10;;
4268;SDS011;2148;48.554;7.834;2023-04-24T13:05:10;2.33;;;2.00;;
4268;SDS011;2148;48.554;7.834;2023-04-24T13:07:38;4.20;;;1.93;;
4268;SDS011;2148;48.554;7.834;2023-04-24T13:10:04;2.13;;;2.03;;
4268;SDS011;2148;48.554;7.834;2023-04-24T13:12:29;2.70;;;2.03;;
4268;SDS011;2148;48.554;7.834;2023-04-24T13:14:55;5.30;;;4.70;;
4268;SDS011;2148;48.554;7.834;2023-04-24T13:17:21;3.10;;;2.70;;
4268;SDS011;2148;48.554;7.834;2023-04-24T13:19:46;2.60;;;2.40;;
4268;SDS011;2148;48.554;7.834;2023-04-24T13:22:14;2.43;;;1.90;;
4268;SDS011;2148;48.554;7.834;2023-04-24T13:24:39;3.97;;;2.20;;
4268;SDS011;2148;48.554;7.834;2023-04-24T13:27:07;2.53;;;2.33;;
4268;SDS011;2148;48.554;7.834;2023-04-24T13:29:34;2.10;;;1.90;;
4268;SDS011;2148;48.554;7.834;2023-04-24T13:31:59;2.50;;;2.20;;
4268;SDS011;2148;48.554;7.834;2023-04-24T13:34:25;2.90;;;2.57;;
4268;SDS011;2148;48.554;7.834;2023-04-24T13:36:53;2.50;;;2.30;;
4268;SDS011;2148;48.554;7.834;2023-04-24T13:39:19;4.50;;;2.70;;
4268;SDS011;2148;48.554;7.834;2023-04-24T13:41:45;2.60;;;2.40;;
4268;SDS011;2148;48.554;7.834;2023-04-24T13:44:12;2.30;;;2.10;;
4268;SDS011;2148;48.554;7.834;2023-04-24T13:46:38;2.57;;;2.10;;
4268;SDS011;2148;48.554;7.834;2023-04-24T13:49:03;2.83;;;2.57;;
4268;SDS011;2148;48.554;7.834;2023-04-24T13:51:28;3.33;;;2.23;;
4268;SDS011;2148;48.554;7.834;2023-04-24T13:53:54;3.00;;;2.80;;
4268;SDS011;2148;48.554;7.834;2023-04-24T13:56:19;2.70;;;2.50;;
4268;SDS011;2148;48.554;7.834;2023-04-24T13:58:45;3.20;;;2.90;;
4268;SDS011;2148;48.554;7.834;2023-04-24T14:01:10;2.73;;;2.50;;
4268;SDS011;2148;48.554;7.834;2023-04-24T14:03:37;3.87;;;2.70;;
4268;SDS011;2148;48.554;7.834;2023-04-24T14:06:02;3.37;;;3.07;;
4268;SDS011;2148;48.554;7.834;2023-04-24T14:08:27;2.70;;;2.50;;
4268;SDS011;2148;48.554;7.834;2023-04-24T14:10:53;3.27;;;2.90;;
4268;SDS011;2148;48.554;7.834;2023-04-24T14:13:18;2.70;;;2.07;;
4268;SDS011;2148;48.554;7.834;2023-04-24T14:15:44;2.50;;;2.23;;
4268;SDS011;2148;48.554;7.834;2023-04-24T14:18:09;3.77;;;2.17;;
4268;SDS011;2148;48.554;7.834;2023-04-24T14:20:34;3.10;;;2.43;;
4268;SDS011;2148;48.554;7.834;2023-04-24T14:23:00;2.00;;;1.90;;
4268;SDS011;2148;48.554;7.834;2023-04-24T14:25:25;2.70;;;2.00;;
4268;SDS011;2148;48.554;7.834;2023-04-24T14:27:50;2.40;;;2.20;;
4268;SDS011;2148;48.554;7.834;2023-04-24T14:30:16;2.73;;;2.10;;
4268;SDS011;2148;48.554;7.834;2023-04-24T14:32:41;1.83;;;1.73;;
4268;SDS011;2148;48.554;7.834;2023-04-24T14:35:07;1.80;;;1.70;;
4268;SDS011;2148;48.554;7.834;2023-04-24T14:37:32;2.83;;;2.20;;
4268;SDS011;2148;48.554;7.834;2023-04-24T14:39:58;2.10;;;1.90;;
4268;SDS011;2148;48.554;7.834;2023-04-24T14:42:23;2.67;;;2.10;;
4268;SDS011;2148;48.554;7.834;2023-04-24T14:44:48;2.10;;;1.80;;
4268;SDS011;2148;48.554;7.834;2023-04-24T14:47:13;2.60;;;2.00;;
4268;SDS011;2148;48.554;7.834;2023-04-24T14:49:39;2.03;;;1.90;;
4268;SDS011;2148;48.554;7.834;2023-04-24T14:52:04;2.13;;;1.93;;
4268;SDS011;2148;48.554;7.834;2023-04-24T14:54:29;2.13;;;1.93;;
4268;SDS011;2148;48.554;7.834;2023-04-24T14:56:55;2.30;;;2.10;;
4268;SDS011;2148;48.554;7.834;2023-04-24T14:59:23;2.23;;;2.03;;
4268;SDS011;2148;48.554;7.834;2023-04-24T15:01:48;2.07;;;1.87;;
4268;SDS011;2148;48.554;7.834;2023-04-24T15:04:15;3.00;;;2.33;;
4268;SDS011;2148;48.554;7.834;2023-04-24T15:06:41;2.40;;;2.13;;
4268;SDS011;2148;48.554;7.834;2023-04-24T15:09:06;3.40;;;2.50;;
4268;SDS011;2148;48.554;7.834;2023-04-24T15:11:32;2.47;;;2.27;;
4268;SDS011;2148;48.554;7.834;2023-04-24T15:13:57;3.07;;;2.50;;
4268;SDS011;2148;48.554;7.834;2023-04-24T15:16:23;2.17;;;1.97;;
4268;SDS011;2148;48.554;7.834;2023-04-24T15:18:48;2.37;;;2.17;;
4268;SDS011;2148;48.554;7.834;2023-04-24T15:21:14;3.60;;;3.30;;